sensor_id;sensor_type;location;lat;lon;timestamp;temperature;humidity
19302;DHT22;9785;59.362;12.152;2023-12-20T00:00:14;-0.60;99.90
19302;DHT22;9785;59.362;12.152;2023-12-20T00:02:43;-0.60;99.90
19302;DHT22;9785;59.362;12.152;2023-12-20T00:05:14;-0.60;99.90
19302;DHT22;9785;59.362;12.152;2023-12-20T00:07:42;-0.50;99.90
19302;DHT22;9785;59.362;12.152;2023-12-20T00:10:11;-0.50;99.90
19302;DHT22;9785;59.362;12.152;2023-12-20T00:12:41;-0.40;99.90
19302;DHT22;9785;59.362;12.152;2023-12-20T00:15:10;-0.40;99.90
19302;DHT22;9785;59.362;12.152;2023-12-20T00:17:38;-0.50;99.90
19302;DHT22;9785;59.362;12.152;2023-12-20T00:20:07;-0.50;99.90
19302;DHT22;9785;59.362;12.152;2023-12-20T00:22:36;-0.40;99.90
19302;DHT22;9785;59.362;12.152;2023-12-20T00:25:05;-0.30;99.90
19302;DHT22;9785;59.362;12.152;2023-12-20T00:27:33;-0.10;99.90
19302;DHT22;9785;59.362;12.152;2023-12-20T00:30:04;-0.20;99.90
19302;DHT22;9785;59.362;12.152;2023-12-20T00:32:32;-0.20;99.90
19302;DHT22;9785;59.362;12.152;2023-12-20T00:35:01;-0.20;99.90
19302;DHT22;9785;59.362;12.152;2023-12-20T00:37:29;-0.20;99.90
19302;DHT22;9785;59.362;12.152;2023-12-20T00:39:57;-0.10;99.90
19302;DHT22;9785;59.362;12.152;2023-12-20T00:42:26;-0.10;99.90
19302;DHT22;9785;59.362;12.152;2023-12-20T00:44:54;-0.10;99.90
19302;DHT22;9785;59.362;12.152;2023-12-20T00:47:24;-0.10;99.90
19302;DHT22;9785;59.362;12.152;2023-12-20T00:49:52;-0.10;99.90
19302;DHT22;9785;59.362;12.152;2023-12-20T00:52:20;0.00;99.90
19302;DHT22;9785;59.362;12.152;2023-12-20T00:54:50;0.00;99.90
19302;DHT22;9785;59.362;12.152;2023-12-20T00:57:19;0.10;99.90
19302;DHT22;9785;59.362;12.152;2023-12-20T00:59:47;0.10;99.90
19302;DHT22;9785;59.362;12.152;2023-12-20T01:02:15;0.20;99.90
19302;DHT22;9785;59.362;12.152;2023-12-20T01:04:45;0.20;99.90
19302;DHT22;9785;59.362;12.152;2023-12-20T01:07:17;0.30;99.90
19302;DHT22;9785;59.362;12.152;2023-12-20T01:09:45;0.30;99.90
19302;DHT22;9785;59.362;12.152;2023-12-20T01:12:14;0.30;99.90
19302;DHT22;9785;59.362;12.152;2023-12-20T01:14:42;0.30;99.90
19302;DHT22;9785;59.362;12.152;2023-12-20T01:17:11;0.30;99.90
19302;DHT22;9785;59.362;12.152;2023-12-20T01:19:39;0.40;99.90
19302;DHT22;9785;59.362;12.152;2023-12-20T01:22:09;0.40;99.90
19302;DHT22;9785;59.362;12.152;2023-12-20T01:24:37;0.30;99.90
19302;DHT22;9785;59.362;12.152;2023-12-20T01:27:06;0.40;99.90
19302;DHT22;9785;59.362;12.152;2023-12-20T01:29:34;0.30;99.90
19302;DHT22;9785;59.362;12.152;2023-12-20T01:32:02;0.30;99.90
19302;DHT22;9785;59.362;12.152;2023-12-20T01:34:31;0.30;99.90
19302;DHT22;9785;59.362;12.152;2023-12-20T01:36:59;0.40;99.90
19302;DHT22;9785;59.362;12.152;2023-12-20T01:39:29;0.50;99.90
19302;DHT22;9785;59.362;12.152;2023-12-20T01:41:57;0.50;99.90
19302;DHT22;9785;59.362;12.152;2023-12-20T01:44:26;0.50;99.90
19302;DHT22;9785;59.362;12.152;2023-12-20T01:46:54;0.60;99.90
19302;DHT22;9785;59.362;12.152;2023-12-20T01:49:23;0.70;99.90
19302;DHT22;9785;59.362;12.152;2023-12-20T01:51:52;0.80;99.90
19302;DHT22;9785;59.362;12.152;2023-12-20T01:54:20;0.90;99.90
19302;DHT22;9785;59.362;12.152;2023-12-20T01:56:50;0.90;99.90
19302;DHT22;9785;59.362;12.152;2023-12-20T01:59:20;1.30;99.90
19302;DHT22;9785;59.362;12.152;2023-12-20T02:01:49;1.20;99.90
19302;DHT22;9785;59.362;12.152;2023-12-20T02:04:18;1.30;99.90
19302;DHT22;9785;59.362;12.152;2023-12-20T02:06:46;1.30;99.90
19302;DHT22;9785;59.362;12.152;2023-12-20T02:09:15;1.20;99.90
19302;DHT22;9785;59.362;12.152;2023-12-20T02:11:44;1.10;99.90
19302;DHT22;9785;59.362;12.152;2023-12-20T02:14:13;1.00;99.90
19302;DHT22;9785;59.362;12.152;2023-12-20T02:16:42;1.00;99.90
19302;DHT22;9785;59.362;12.152;2023-12-20T02:19:14;0.90;99.90
19302;DHT22;9785;59.362;12.152;2023-12-20T02:21:46;0.80;99.90
19302;DHT22;9785;59.362;12.152;2023-12-20T02:24:14;0.90;99.90
19302;DHT22;9785;59.362;12.152;2023-12-20T02:26:44;0.80;99.90
19302;DHT22;9785;59.362;12.152;2023-12-20T02:29:13;1.00;99.90
19302;DHT22;9785;59.362;12.152;2023-12-20T02:31:41;1.00;99.90
19302;DHT22;9785;59.362;12.152;2023-12-20T02:34:09;1.10;99.90
19302;DHT22;9785;59.362;12.152;2023-12-20T02:36:38;1.20;99.90
19302;DHT22;9785;59.362;12.152;2023-12-20T02:39:08;1.40;99.90
19302;DHT22;9785;59.362;12.152;2023-12-20T02:41:36;1.40;99.90
19302;DHT22;9785;59.362;12.152;2023-12-20T02:44:04;1.40;99.90
19302;DHT22;9785;59.362;12.152;2023-12-20T02:46:33;1.40;99.90
19302;DHT22;9785;59.362;12.152;2023-12-20T02:49:01;1.40;99.90
19302;DHT22;9785;59.362;12.152;2023-12-20T02:51:29;1.50;99.90
19302;DHT22;9785;59.362;12.152;2023-12-20T02:53:58;1.50;99.90
19302;DHT22;9785;59.362;12.152;2023-12-20T02:56:27;1.40;99.90
19302;DHT22;9785;59.362;12.152;2023-12-20T02:58:55;1.50;99.90
19302;DHT22;9785;59.362;12.152;2023-12-20T03:01:24;1.50;99.90
19302;DHT22;9785;59.362;12.152;2023-12-20T03:03:52;1.70;99.90
19302;DHT22;9785;59.362;12.152;2023-12-20T03:06:20;1.70;99.90
19302;DHT22;9785;59.362;12.152;2023-12-20T03:08:49;1.70;99.90
19302;DHT22;9785;59.362;12.152;2023-12-20T03:11:17;1.80;99.90
19302;DHT22;9785;59.362;12.152;2023-12-20T03:13:47;1.90;99.90
19302;DHT22;9785;59.362;12.152;2023-12-20T03:16:15;2.00;99.90
19302;DHT22;9785;59.362;12.152;2023-12-20T03:18:44;2.10;99.90
19302;DHT22;9785;59.362;12.152;2023-12-20T03:21:12;2.10;99.90
19302;DHT22;9785;59.362;12.152;2023-12-20T03:23:40;2.10;99.90
19302;DHT22;9785;59.362;12.152;2023-12-20T03:26:09;2.20;99.90
19302;DHT22;9785;59.362;12.152;2023-12-20T03:28:37;2.20;99.90
19302;DHT22;9785;59.362;12.152;2023-12-20T03:31:07;2.20;99.90
19302;DHT22;9785;59.362;12.152;2023-12-20T03:33:35;2.30;99.90
19302;DHT22;9785;59.362;12.152;2023-12-20T03:36:04;2.40;99.90
19302;DHT22;9785;59.362;12.152;2023-12-20T03:38:32;2.40;99.90
19302;DHT22;9785;59.362;12.152;2023-12-20T03:41:01;2.30;99.90
19302;DHT22;9785;59.362;12.152;2023-12-20T03:43:29;2.40;99.90
19302;DHT22;9785;59.362;12.152;2023-12-20T03:45:58;2.40;99.90
19302;DHT22;9785;59.362;12.152;2023-12-20T03:48:28;2.40;99.90
19302;DHT22;9785;59.362;12.152;2023-12-20T03:50:57;2.40;99.90
19302;DHT22;9785;59.362;12.152;2023-12-20T03:53:25;2.50;99.90
19302;DHT22;9785;59.362;12.152;2023-12-20T03:55:53;2.40;99.90
19302;DHT22;9785;59.362;12.152;2023-12-20T03:58:22;2.30;99.90
19302;DHT22;9785;59.362;12.152;2023-12-20T04:00:50;2.40;99.90
19302;DHT22;9785;59.362;12.152;2023-12-20T04:03:19;2.50;99.90
19302;DHT22;9785;59.362;12.152;2023-12-20T04:05:48;2.50;99.90
19302;DHT22;9785;59.362;12.152;2023-12-20T04:08:17;2.50;99.90
19302;DHT22;9785;59.362;12.152;2023-12-20T04:10:45;2.60;99.90
19302;DHT22;9785;59.362;12.152;2023-12-20T04:13:14;2.70;99.90
19302;DHT22;9785;59.362;12.152;2023-12-20T04:15:42;2.80;99.90
19302;DHT22;9785;59.362;12.152;2023-12-20T04:18:11;2.70;99.90
19302;DHT22;9785;59.362;12.152;2023-12-20T04:20:39;2.80;99.90
19302;DHT22;9785;59.362;12.152;2023-12-20T04:23:09;2.80;99.90
19302;DHT22;9785;59.362;12.152;2023-12-20T04:25:37;2.80;99.90
19302;DHT22;9785;59.362;12.152;2023-12-20T04:28:05;2.70;99.90
19302;DHT22;9785;59.362;12.152;2023-12-20T04:30:33;2.70;99.90
19302;DHT22;9785;59.362;12.152;2023-12-20T04:33:02;2.70;99.90
19302;DHT22;9785;59.362;12.152;2023-12-20T04:35:30;2.70;99.90
19302;DHT22;9785;59.362;12.152;2023-12-20T04:37:59;2.70;99.90
19302;DHT22;9785;59.362;12.152;2023-12-20T04:40:28;2.60;99.90
19302;DHT22;9785;59.362;12.152;2023-12-20T04:42:57;2.70;99.90
19302;DHT22;9785;59.362;12.152;2023-12-20T04:45:25;2.60;99.90
19302;DHT22;9785;59.362;12.152;2023-12-20T04:47:54;2.40;99.90
19302;DHT22;9785;59.362;12.152;2023-12-20T04:50:23;2.30;99.90
19302;DHT22;9785;59.362;12.152;2023-12-20T04:52:51;2.30;99.90
19302;DHT22;9785;59.362;12.152;2023-12-20T04:55:20;2.20;99.90
19302;DHT22;9785;59.362;12.152;2023-12-20T04:57:49;2.30;99.90
19302;DHT22;9785;59.362;12.152;2023-12-20T05:00:18;2.40;99.90
19302;DHT22;9785;59.362;12.152;2023-12-20T05:02:46;2.40;99.90
19302;DHT22;9785;59.362;12.152;2023-12-20T05:05:14;2.30;99.90
19302;DHT22;9785;59.362;12.152;2023-12-20T05:07:44;2.40;99.90
19302;DHT22;9785;59.362;12.152;2023-12-20T05:10:13;2.40;99.90
19302;DHT22;9785;59.362;12.152;2023-12-20T05:12:42;2.40;99.90
19302;DHT22;9785;59.362;12.152;2023-12-20T05:15:12;2.40;99.90
19302;DHT22;9785;59.362;12.152;2023-12-20T05:17:40;2.30;99.90
19302;DHT22;9785;59.362;12.152;2023-12-20T05:20:09;2.30;99.90
19302;DHT22;9785;59.362;12.152;2023-12-20T05:22:37;2.20;99.90
19302;DHT22;9785;59.362;12.152;2023-12-20T05:25:06;2.30;99.90
19302;DHT22;9785;59.362;12.152;2023-12-20T05:27:34;2.30;99.90
19302;DHT22;9785;59.362;12.152;2023-12-20T05:30:03;2.30;99.90
19302;DHT22;9785;59.362;12.152;2023-12-20T05:32:33;2.20;99.90
19302;DHT22;9785;59.362;12.152;2023-12-20T05:35:01;2.20;99.90
19302;DHT22;9785;59.362;12.152;2023-12-20T05:37:30;2.20;99.90
19302;DHT22;9785;59.362;12.152;2023-12-20T05:39:58;2.20;99.90
19302;DHT22;9785;59.362;12.152;2023-12-20T05:42:28;2.10;99.90
19302;DHT22;9785;59.362;12.152;2023-12-20T05:44:56;2.10;99.90
19302;DHT22;9785;59.362;12.152;2023-12-20T05:47:25;2.00;99.90
19302;DHT22;9785;59.362;12.152;2023-12-20T05:49:55;2.10;99.90
19302;DHT22;9785;59.362;12.152;2023-12-20T05:52:23;2.10;99.90
19302;DHT22;9785;59.362;12.152;2023-12-20T05:54:51;2.30;99.90
19302;DHT22;9785;59.362;12.152;2023-12-20T05:57:20;2.10;99.90
19302;DHT22;9785;59.362;12.152;2023-12-20T05:59:50;2.10;99.90
19302;DHT22;9785;59.362;12.152;2023-12-20T06:02:18;2.10;99.90
19302;DHT22;9785;59.362;12.152;2023-12-20T06:04:47;2.20;99.90
19302;DHT22;9785;59.362;12.152;2023-12-20T06:07:17;2.20;99.90
19302;DHT22;9785;59.362;12.152;2023-12-20T06:09:45;2.20;99.90
19302;DHT22;9785;59.362;12.152;2023-12-20T06:12:13;2.20;99.90
19302;DHT22;9785;59.362;12.152;2023-12-20T06:14:42;2.50;99.90
19302;DHT22;9785;59.362;12.152;2023-12-20T06:17:10;2.40;99.90
19302;DHT22;9785;59.362;12.152;2023-12-20T06:19:38;2.40;99.90
19302;DHT22;9785;59.362;12.152;2023-12-20T06:22:07;2.30;99.90
19302;DHT22;9785;59.362;12.152;2023-12-20T06:24:36;2.30;99.90
19302;DHT22;9785;59.362;12.152;2023-12-20T06:27:05;2.40;99.90
19302;DHT22;9785;59.362;12.152;2023-12-20T06:29:33;2.40;99.90
19302;DHT22;9785;59.362;12.152;2023-12-20T06:32:02;2.30;99.90
19302;DHT22;9785;59.362;12.152;2023-12-20T06:34:32;2.30;99.90
19302;DHT22;9785;59.362;12.152;2023-12-20T06:37:01;2.30;99.90
19302;DHT22;9785;59.362;12.152;2023-12-20T06:39:29;2.20;99.90
19302;DHT22;9785;59.362;12.152;2023-12-20T06:42:00;2.20;99.90
19302;DHT22;9785;59.362;12.152;2023-12-20T06:44:28;2.20;99.90
19302;DHT22;9785;59.362;12.152;2023-12-20T06:46:56;2.10;99.90
19302;DHT22;9785;59.362;12.152;2023-12-20T06:49:25;2.10;99.90
19302;DHT22;9785;59.362;12.152;2023-12-20T06:51:53;2.10;99.90
19302;DHT22;9785;59.362;12.152;2023-12-20T06:54:21;2.00;99.90
19302;DHT22;9785;59.362;12.152;2023-12-20T06:56:50;2.00;99.90
19302;DHT22;9785;59.362;12.152;2023-12-20T06:59:19;2.00;99.90
19302;DHT22;9785;59.362;12.152;2023-12-20T07:01:48;2.00;99.90
19302;DHT22;9785;59.362;12.152;2023-12-20T07:04:17;2.00;99.90
19302;DHT22;9785;59.362;12.152;2023-12-20T07:06:48;1.90;99.90
19302;DHT22;9785;59.362;12.152;2023-12-20T07:09:18;1.90;99.90
19302;DHT22;9785;59.362;12.152;2023-12-20T07:11:46;1.70;99.90
19302;DHT22;9785;59.362;12.152;2023-12-20T07:14:14;1.70;99.90
19302;DHT22;9785;59.362;12.152;2023-12-20T07:16:44;1.70;99.90
19302;DHT22;9785;59.362;12.152;2023-12-20T07:19:12;1.80;99.90
19302;DHT22;9785;59.362;12.152;2023-12-20T07:21:41;1.80;99.90
19302;DHT22;9785;59.362;12.152;2023-12-20T07:24:09;1.70;99.90
19302;DHT22;9785;59.362;12.152;2023-12-20T07:26:38;1.70;99.90
19302;DHT22;9785;59.362;12.152;2023-12-20T07:29:07;1.90;99.90
19302;DHT22;9785;59.362;12.152;2023-12-20T07:31:35;1.90;99.90
19302;DHT22;9785;59.362;12.152;2023-12-20T07:34:05;1.90;99.90
19302;DHT22;9785;59.362;12.152;2023-12-20T07:36:33;1.80;99.90
19302;DHT22;9785;59.362;12.152;2023-12-20T07:39:02;1.90;99.90
19302;DHT22;9785;59.362;12.152;2023-12-20T07:41:30;2.00;99.90
19302;DHT22;9785;59.362;12.152;2023-12-20T07:43:59;2.10;99.90
19302;DHT22;9785;59.362;12.152;2023-12-20T07:46:27;2.10;99.90
19302;DHT22;9785;59.362;12.152;2023-12-20T07:48:55;2.10;99.90
19302;DHT22;9785;59.362;12.152;2023-12-20T07:51:25;2.20;99.90
19302;DHT22;9785;59.362;12.152;2023-12-20T07:53:53;2.20;99.90
19302;DHT22;9785;59.362;12.152;2023-12-20T07:56:22;2.20;99.90
19302;DHT22;9785;59.362;12.152;2023-12-20T07:58:50;2.20;99.90
19302;DHT22;9785;59.362;12.152;2023-12-20T08:01:20;2.20;99.90
19302;DHT22;9785;59.362;12.152;2023-12-20T08:03:49;2.20;99.90
19302;DHT22;9785;59.362;12.152;2023-12-20T08:06:19;2.20;99.90
19302;DHT22;9785;59.362;12.152;2023-12-20T08:08:49;2.20;99.90
19302;DHT22;9785;59.362;12.152;2023-12-20T08:11:28;2.20;99.90
19302;DHT22;9785;59.362;12.152;2023-12-20T08:13:56;2.20;99.90
19302;DHT22;9785;59.362;12.152;2023-12-20T08:16:25;2.20;99.90
19302;DHT22;9785;59.362;12.152;2023-12-20T08:18:53;2.20;99.90
19302;DHT22;9785;59.362;12.152;2023-12-20T08:21:22;2.30;99.90
19302;DHT22;9785;59.362;12.152;2023-12-20T08:23:52;2.30;99.90
19302;DHT22;9785;59.362;12.152;2023-12-20T08:26:20;2.30;99.90
19302;DHT22;9785;59.362;12.152;2023-12-20T08:28:50;2.20;99.90
19302;DHT22;9785;59.362;12.152;2023-12-20T08:31:18;2.30;99.90
19302;DHT22;9785;59.362;12.152;2023-12-20T08:33:47;2.50;99.90
19302;DHT22;9785;59.362;12.152;2023-12-20T08:36:16;2.40;99.90
19302;DHT22;9785;59.362;12.152;2023-12-20T08:38:45;2.40;99.90
19302;DHT22;9785;59.362;12.152;2023-12-20T08:41:16;2.40;99.90
19302;DHT22;9785;59.362;12.152;2023-12-20T08:43:44;2.50;99.90
19302;DHT22;9785;59.362;12.152;2023-12-20T08:46:14;2.50;99.90
19302;DHT22;9785;59.362;12.152;2023-12-20T08:48:42;2.50;99.90
19302;DHT22;9785;59.362;12.152;2023-12-20T08:51:12;2.50;99.90
19302;DHT22;9785;59.362;12.152;2023-12-20T08:53:41;2.50;99.90
19302;DHT22;9785;59.362;12.152;2023-12-20T08:56:12;2.50;99.90
19302;DHT22;9785;59.362;12.152;2023-12-20T08:58:42;2.40;99.90
19302;DHT22;9785;59.362;12.152;2023-12-20T09:01:10;2.40;99.90
19302;DHT22;9785;59.362;12.152;2023-12-20T09:03:39;2.30;99.90
19302;DHT22;9785;59.362;12.152;2023-12-20T09:06:07;2.40;99.90
19302;DHT22;9785;59.362;12.152;2023-12-20T09:08:36;2.50;99.90
19302;DHT22;9785;59.362;12.152;2023-12-20T09:11:04;2.40;99.90
19302;DHT22;9785;59.362;12.152;2023-12-20T09:13:33;2.30;99.90
19302;DHT22;9785;59.362;12.152;2023-12-20T09:16:03;2.30;99.90
19302;DHT22;9785;59.362;12.152;2023-12-20T09:18:31;2.30;99.90
19302;DHT22;9785;59.362;12.152;2023-12-20T09:21:00;2.20;99.90
19302;DHT22;9785;59.362;12.152;2023-12-20T09:23:29;2.20;99.90
19302;DHT22;9785;59.362;12.152;2023-12-20T09:25:57;2.10;99.90
19302;DHT22;9785;59.362;12.152;2023-12-20T09:28:25;2.20;99.90
19302;DHT22;9785;59.362;12.152;2023-12-20T09:30:54;2.20;99.90
19302;DHT22;9785;59.362;12.152;2023-12-20T09:33:23;2.20;99.90
19302;DHT22;9785;59.362;12.152;2023-12-20T09:35:52;2.30;99.90
19302;DHT22;9785;59.362;12.152;2023-12-20T09:38:21;2.20;99.90
19302;DHT22;9785;59.362;12.152;2023-12-20T09:40:49;2.10;99.90
19302;DHT22;9785;59.362;12.152;2023-12-20T09:43:19;2.10;99.90
19302;DHT22;9785;59.362;12.152;2023-12-20T09:45:48;2.00;99.90
19302;DHT22;9785;59.362;12.152;2023-12-20T09:48:20;1.90;99.90
19302;DHT22;9785;59.362;12.152;2023-12-20T09:50:50;1.90;99.90
19302;DHT22;9785;59.362;12.152;2023-12-20T09:53:21;2.10;99.90
19302;DHT22;9785;59.362;12.152;2023-12-20T09:55:58;2.10;99.90
19302;DHT22;9785;59.362;12.152;2023-12-20T09:58:27;2.30;99.90
19302;DHT22;9785;59.362;12.152;2023-12-20T10:00:56;2.30;99.90
19302;DHT22;9785;59.362;12.152;2023-12-20T10:03:25;2.20;99.90
19302;DHT22;9785;59.362;12.152;2023-12-20T10:05:57;2.30;99.90
19302;DHT22;9785;59.362;12.152;2023-12-20T10:08:25;2.40;99.90
19302;DHT22;9785;59.362;12.152;2023-12-20T10:10:55;2.30;99.90
19302;DHT22;9785;59.362;12.152;2023-12-20T10:13:24;2.30;99.90
19302;DHT22;9785;59.362;12.152;2023-12-20T10:15:55;2.20;99.90
19302;DHT22;9785;59.362;12.152;2023-12-20T10:18:24;2.20;99.90
19302;DHT22;9785;59.362;12.152;2023-12-20T10:21:07;2.20;99.90
19302;DHT22;9785;59.362;12.152;2023-12-20T10:23:37;2.40;99.90
19302;DHT22;9785;59.362;12.152;2023-12-20T10:26:06;2.30;99.90
19302;DHT22;9785;59.362;12.152;2023-12-20T10:28:35;2.50;99.90
19302;DHT22;9785;59.362;12.152;2023-12-20T10:31:04;2.40;99.90
19302;DHT22;9785;59.362;12.152;2023-12-20T10:33:32;2.40;99.90
19302;DHT22;9785;59.362;12.152;2023-12-20T10:36:01;2.30;99.90
19302;DHT22;9785;59.362;12.152;2023-12-20T10:38:31;2.40;99.90
19302;DHT22;9785;59.362;12.152;2023-12-20T10:41:01;2.30;99.90
19302;DHT22;9785;59.362;12.152;2023-12-20T10:43:33;2.40;99.90
19302;DHT22;9785;59.362;12.152;2023-12-20T10:46:03;2.30;99.90
19302;DHT22;9785;59.362;12.152;2023-12-20T10:48:32;2.20;99.90
19302;DHT22;9785;59.362;12.152;2023-12-20T10:51:04;2.30;99.90
19302;DHT22;9785;59.362;12.152;2023-12-20T10:53:35;2.30;99.90
19302;DHT22;9785;59.362;12.152;2023-12-20T10:56:05;2.20;99.90
19302;DHT22;9785;59.362;12.152;2023-12-20T10:58:34;2.30;99.90
19302;DHT22;9785;59.362;12.152;2023-12-20T11:01:05;2.30;99.90
19302;DHT22;9785;59.362;12.152;2023-12-20T11:03:35;2.30;99.90
19302;DHT22;9785;59.362;12.152;2023-12-20T11:06:08;2.30;99.90
19302;DHT22;9785;59.362;12.152;2023-12-20T11:08:46;2.20;99.90
19302;DHT22;9785;59.362;12.152;2023-12-20T11:11:23;2.30;99.90
19302;DHT22;9785;59.362;12.152;2023-12-20T11:13:57;2.30;99.90
19302;DHT22;9785;59.362;12.152;2023-12-20T11:16:26;2.20;99.90
19302;DHT22;9785;59.362;12.152;2023-12-20T11:19:07;2.30;99.90
19302;DHT22;9785;59.362;12.152;2023-12-20T11:21:36;2.30;99.90
19302;DHT22;9785;59.362;12.152;2023-12-20T11:24:06;2.30;99.90
19302;DHT22;9785;59.362;12.152;2023-12-20T11:26:34;2.30;99.90
19302;DHT22;9785;59.362;12.152;2023-12-20T11:29:31;2.20;99.90
19302;DHT22;9785;59.362;12.152;2023-12-20T11:32:01;2.20;99.90
19302;DHT22;9785;59.362;12.152;2023-12-20T11:34:32;2.10;99.90
19302;DHT22;9785;59.362;12.152;2023-12-20T11:37:02;2.00;99.90
19302;DHT22;9785;59.362;12.152;2023-12-20T11:39:32;2.00;99.90
19302;DHT22;9785;59.362;12.152;2023-12-20T11:42:04;2.00;99.90
19302;DHT22;9785;59.362;12.152;2023-12-20T11:44:35;2.10;99.90
19302;DHT22;9785;59.362;12.152;2023-12-20T11:47:04;2.20;99.90
19302;DHT22;9785;59.362;12.152;2023-12-20T11:49:32;2.10;99.90
19302;DHT22;9785;59.362;12.152;2023-12-20T11:52:01;2.00;99.90
19302;DHT22;9785;59.362;12.152;2023-12-20T11:54:31;2.00;99.90
19302;DHT22;9785;59.362;12.152;2023-12-20T11:57:00;1.90;99.90
19302;DHT22;9785;59.362;12.152;2023-12-20T11:59:28;1.90;99.90
19302;DHT22;9785;59.362;12.152;2023-12-20T12:01:58;1.80;99.90
19302;DHT22;9785;59.362;12.152;2023-12-20T12:04:28;1.80;99.90
19302;DHT22;9785;59.362;12.152;2023-12-20T12:06:57;2.00;99.90
19302;DHT22;9785;59.362;12.152;2023-12-20T12:09:25;1.90;99.90
19302;DHT22;9785;59.362;12.152;2023-12-20T12:11:55;1.90;99.90
19302;DHT22;9785;59.362;12.152;2023-12-20T12:14:24;1.90;99.90
19302;DHT22;9785;59.362;12.152;2023-12-20T12:16:52;1.90;99.90
19302;DHT22;9785;59.362;12.152;2023-12-20T12:19:21;1.90;99.90
19302;DHT22;9785;59.362;12.152;2023-12-20T12:21:50;1.90;99.90
19302;DHT22;9785;59.362;12.152;2023-12-20T12:24:20;1.90;99.90
19302;DHT22;9785;59.362;12.152;2023-12-20T12:26:52;2.00;99.90
19302;DHT22;9785;59.362;12.152;2023-12-20T12:29:22;1.90;99.90
19302;DHT22;9785;59.362;12.152;2023-12-20T12:31:51;1.90;99.90
19302;DHT22;9785;59.362;12.152;2023-12-20T12:34:20;1.90;99.90
19302;DHT22;9785;59.362;12.152;2023-12-20T12:36:48;1.80;99.90
19302;DHT22;9785;59.362;12.152;2023-12-20T12:39:18;1.70;99.90
19302;DHT22;9785;59.362;12.152;2023-12-20T12:41:46;1.70;99.90
19302;DHT22;9785;59.362;12.152;2023-12-20T12:44:15;1.70;99.90
19302;DHT22;9785;59.362;12.152;2023-12-20T12:46:46;1.60;99.90
19302;DHT22;9785;59.362;12.152;2023-12-20T12:49:17;1.60;99.90
19302;DHT22;9785;59.362;12.152;2023-12-20T12:51:45;1.60;99.90
19302;DHT22;9785;59.362;12.152;2023-12-20T12:54:14;1.60;99.90
19302;DHT22;9785;59.362;12.152;2023-12-20T12:56:43;1.50;99.90
19302;DHT22;9785;59.362;12.152;2023-12-20T12:59:14;1.60;99.90
19302;DHT22;9785;59.362;12.152;2023-12-20T13:01:42;1.60;99.90
19302;DHT22;9785;59.362;12.152;2023-12-20T13:04:12;1.60;99.90
19302;DHT22;9785;59.362;12.152;2023-12-20T13:06:40;1.60;99.90
19302;DHT22;9785;59.362;12.152;2023-12-20T13:09:09;1.70;99.90
19302;DHT22;9785;59.362;12.152;2023-12-20T13:11:40;1.70;99.90
19302;DHT22;9785;59.362;12.152;2023-12-20T13:14:08;1.70;99.90
19302;DHT22;9785;59.362;12.152;2023-12-20T13:16:42;1.60;99.90
19302;DHT22;9785;59.362;12.152;2023-12-20T13:19:13;1.80;99.90
19302;DHT22;9785;59.362;12.152;2023-12-20T13:21:42;1.80;99.90
19302;DHT22;9785;59.362;12.152;2023-12-20T13:24:10;1.70;99.90
19302;DHT22;9785;59.362;12.152;2023-12-20T13:26:38;1.70;99.90
19302;DHT22;9785;59.362;12.152;2023-12-20T13:29:07;1.70;99.90
19302;DHT22;9785;59.362;12.152;2023-12-20T13:31:35;1.70;99.90
19302;DHT22;9785;59.362;12.152;2023-12-20T13:34:04;1.70;99.90
19302;DHT22;9785;59.362;12.152;2023-12-20T13:36:34;1.60;99.90
19302;DHT22;9785;59.362;12.152;2023-12-20T13:39:03;1.60;99.90
19302;DHT22;9785;59.362;12.152;2023-12-20T13:41:32;1.60;99.90
19302;DHT22;9785;59.362;12.152;2023-12-20T13:44:00;1.50;99.90
19302;DHT22;9785;59.362;12.152;2023-12-20T13:46:30;1.50;99.90
19302;DHT22;9785;59.362;12.152;2023-12-20T13:48:59;1.50;99.90
19302;DHT22;9785;59.362;12.152;2023-12-20T13:51:28;1.50;99.90
19302;DHT22;9785;59.362;12.152;2023-12-20T13:53:58;1.50;99.90
19302;DHT22;9785;59.362;12.152;2023-12-20T13:56:26;1.40;99.90
19302;DHT22;9785;59.362;12.152;2023-12-20T13:58:55;1.40;99.90
19302;DHT22;9785;59.362;12.152;2023-12-20T14:01:23;1.30;99.90
19302;DHT22;9785;59.362;12.152;2023-12-20T14:03:52;1.30;99.90
19302;DHT22;9785;59.362;12.152;2023-12-20T14:06:20;1.20;99.90
19302;DHT22;9785;59.362;12.152;2023-12-20T14:08:49;1.20;99.90
19302;DHT22;9785;59.362;12.152;2023-12-20T14:11:18;1.20;99.90
19302;DHT22;9785;59.362;12.152;2023-12-20T14:13:49;1.10;99.90
19302;DHT22;9785;59.362;12.152;2023-12-20T14:16:17;1.10;99.90
19302;DHT22;9785;59.362;12.152;2023-12-20T14:18:45;1.00;99.90
19302;DHT22;9785;59.362;12.152;2023-12-20T14:21:14;1.00;99.90
19302;DHT22;9785;59.362;12.152;2023-12-20T14:23:42;1.00;99.90
19302;DHT22;9785;59.362;12.152;2023-12-20T14:26:13;0.90;99.90
19302;DHT22;9785;59.362;12.152;2023-12-20T14:28:44;0.90;99.90
19302;DHT22;9785;59.362;12.152;2023-12-20T14:31:12;0.80;99.90
19302;DHT22;9785;59.362;12.152;2023-12-20T14:33:40;0.80;99.90
19302;DHT22;9785;59.362;12.152;2023-12-20T14:36:09;0.70;99.90
19302;DHT22;9785;59.362;12.152;2023-12-20T14:38:38;0.70;99.90
19302;DHT22;9785;59.362;12.152;2023-12-20T14:41:06;0.70;99.90
19302;DHT22;9785;59.362;12.152;2023-12-20T14:43:35;0.70;99.90
19302;DHT22;9785;59.362;12.152;2023-12-20T14:46:05;0.70;99.90
19302;DHT22;9785;59.362;12.152;2023-12-20T14:48:34;0.60;99.90
19302;DHT22;9785;59.362;12.152;2023-12-20T14:51:02;0.50;99.90
19302;DHT22;9785;59.362;12.152;2023-12-20T14:53:31;0.50;99.90
19302;DHT22;9785;59.362;12.152;2023-12-20T14:55:59;0.50;99.90
19302;DHT22;9785;59.362;12.152;2023-12-20T14:58:29;0.40;99.90
19302;DHT22;9785;59.362;12.152;2023-12-20T15:00:58;0.40;99.90
19302;DHT22;9785;59.362;12.152;2023-12-20T15:03:28;0.40;99.90
19302;DHT22;9785;59.362;12.152;2023-12-20T15:05:58;0.40;99.90
19302;DHT22;9785;59.362;12.152;2023-12-20T15:08:27;0.40;99.90
19302;DHT22;9785;59.362;12.152;2023-12-20T15:10:56;0.40;99.90
19302;DHT22;9785;59.362;12.152;2023-12-20T15:13:24;0.40;99.90
19302;DHT22;9785;59.362;12.152;2023-12-20T15:15:53;0.40;99.90
19302;DHT22;9785;59.362;12.152;2023-12-20T15:18:21;0.30;99.90
19302;DHT22;9785;59.362;12.152;2023-12-20T15:20:52;0.30;99.90
19302;DHT22;9785;59.362;12.152;2023-12-20T15:23:21;0.30;99.90
19302;DHT22;9785;59.362;12.152;2023-12-20T15:25:53;0.20;99.90
19302;DHT22;9785;59.362;12.152;2023-12-20T15:28:21;0.20;99.90
19302;DHT22;9785;59.362;12.152;2023-12-20T15:30:49;0.20;99.90
19302;DHT22;9785;59.362;12.152;2023-12-20T15:33:18;0.20;99.90
19302;DHT22;9785;59.362;12.152;2023-12-20T15:35:46;0.10;99.90
19302;DHT22;9785;59.362;12.152;2023-12-20T15:38:16;0.10;99.90
19302;DHT22;9785;59.362;12.152;2023-12-20T15:40:44;0.10;99.90
19302;DHT22;9785;59.362;12.152;2023-12-20T15:43:12;0.10;99.90
19302;DHT22;9785;59.362;12.152;2023-12-20T15:45:41;0.10;99.90
19302;DHT22;9785;59.362;12.152;2023-12-20T15:48:09;0.00;99.90
19302;DHT22;9785;59.362;12.152;2023-12-20T15:50:40;-0.10;99.90
19302;DHT22;9785;59.362;12.152;2023-12-20T15:53:08;-0.20;99.90
19302;DHT22;9785;59.362;12.152;2023-12-20T15:55:38;-0.30;99.90